Here is the Quick Look data you requested

The Data originates at the National Weather Service, and is made available here by the UAlbany Department of Atmospheric and Environmental Sciences

Surface Observations

KHGR 202353Z 00000KT 10SM CLR 33/27 A2989 RMK AO2 SLP122 T03280267 10350 20328
 50004 $=
KHGR 210053Z 00000KT 9SM CLR 32/27 A2989 RMK AO2 LTG DSNT N SLP122 T03170267 $=
KHGR 210153Z 26004KT 10SM CLR 31/27 A2991 RMK AO2 SLP130 T03060267 $=
KHGR 210253Z AUTO 27005KT 10SM CLR 29/26 A2991 RMK AO2 SLP128 T02940261 50007=
KHGR 210353Z AUTO 00000KT 10SM CLR 29/24 A2991 RMK AO2 SLP130 T02890244=
KHGR 210453Z AUTO 30003KT 10SM CLR 29/25 A2992 RMK AO2 SLP132 T02940250
 403500244=
KHGR 210553Z AUTO 00000KT 10SM CLR 29/26 A2990 RMK AO2 SLP127 T02890256 10328
 20289 58001=
KHGR 210653Z AUTO 15006KT 10SM CLR 27/26 A2988 RMK AO2 SLP119 T02720256=
KHGR 210753Z AUTO 19006KT 10SM CLR 27/26 A2987 RMK AO2 SLP117 T02720256=
KHGR 210853Z AUTO 20004KT 10SM CLR 27/26 A2987 RMK AO2 SLP117 T02720256 56009=
KHGR 210953Z AUTO 19004KT 10SM CLR 26/26 A2989 RMK AO2 SLP121 T02610256=
KHGR 211053Z 16003KT 9SM CLR 26/26 A2992 RMK AO2 SLP132 T02610256=
KHGR 211153Z 23006KT 10SM CLR 28/26 A2994 RMK AO2 SLP139 T02830256 10294 20256
 53021=
KHGR 211253Z 27004KT 9SM CLR 29/26 A2994 RMK AO2 SLP140 T02940261=
KHGR 211353Z 23006KT 10SM CLR 31/26 A2992 RMK AO2 SLP134 T03110261=
KHGR 211453Z 27006KT 10SM FEW038 32/26 A2992 RMK AO2 SLP133 T03220261 58006=
KHGR 211553Z 32006KT 10SM SCT041 33/26 A2992 RMK AO2 SLP131 T03280261=
KHGR 211653Z 28007KT 10SM SCT045 BKN050 34/27 A2991 RMK AO2 SLP129 T03390267=
KHGR 211753Z 30007KT 10SM SCT049 SCT065 BKN085 34/26 A2990 RMK AO2 SLP126
 T03390261 10350 20283 58007=
KHGR 211853Z VRB05KT 10SM SCT085 35/26 A2987 RMK AO2 LTG DSNT N SLP117
 T03500261=
KHGR 211953Z 29008KT 10SM SCT060 BKN085 36/26 A2986 RMK AO2 SLP112 T03610256=
KHGR 212053Z 28007KT 240V300 10SM FEW060 SCT080 36/25 A2986 RMK AO2 LTG DSNT NW
 SLP111 T03610250 56014=
KHGR 212126Z 23008KT 10SM FEW060 36/26 A2984 RMK AO2 LTG DSNT N AND NW TS N MOV
 E T03610256=
KHGR 212153Z 32010G27KT 10SM BKN060 31/23 A2987 RMK AO2 PK WND 35027/2145
 SLP116 TS N MOV E T03060228=
KHGR 212200Z 34008KT 10SM TS BKN060 31/22 A2987 RMK AO2 LTG DSNT W TSB2154
 T03060222=
KHGR 212220Z 35005KT 10SM FEW060 SCT070 28/25 A2986 RMK AO2 LTG DSNT E RAB03E18
 TSB2154E14 P0001 T02830250=
KHGR 212253Z 31006KT 10SM FEW045 29/26 A2989 RMK AO2 LTG DSNT E AND SW
 RAB03E18B33E42 TSB2154E14 SLP122 TS DSNT SW MOV E P0001 T02940256=
KHGR 212353Z 18012KT 10SM FEW065 BKN085 30/24 A2989 RMK AO2 LTG DSNT ALQDS
 SLP123 TS DSNT W MOV E 60001 T03000239 10367 20272 51012=
KHGR 220009Z 21019G27KT 10SM BKN060 OVC090 29/23 A2991 RMK AO2 PK WND
 19027/0003 WSHFT 2349 LTG DSNT ALQDS T02940233=
KHGR 220021Z 23021G27KT 8SM -TSRA OVC060 27/24 A2993 RMK AO2 PK WND 22032/0010
 WSHFT 2349 LTG DSNT SE-W RAB16 TSB15 PRESRR TS W MOV E LTG OHD CG P0001
 T02720244=
KHGR 220028Z 24019G30KT 1 3/4SM +TSRA BR FEW025 OVC060 25/25 A2994 RMK AO2 PK
 WND 22032/0010 WSHFT 2349 LTG DSNT SE-W RAB16 TSB15 PRESRR TS OHD MOV E P0017
 T02500250=
KHGR 220039Z 24011G27KT 1 1/4SM VCTS +RA BR BKN026 OVC065 24/24 A2994 RMK AO2
 PK WND 22032/0010 WSHFT 2349 LTG DSNT ALQDS RAB16 TSB15E39 TS OHD MOV E P0040
 T02390239=
KHGR 220053Z 24010G17KT 1 3/4SM +TSRA BR OVC034 23/23 A2995 RMK AO2 PK WND
 22032/0010 WSHFT 2349 LTG DSNT ALQDS RAB16 TSB15E39B49 SLP143 TS OHD MOV E
 P0055 T02330233=
KHGR 220100Z 24010KT 2SM +TSRA BR BKN034 OVC070 23/23 A2994 RMK AO2 LTG DSNT
 ALQDS P0008 T02330233=
KHGR 220107Z 27007G15KT 1 1/2SM +TSRA BR OVC037 23/23 A2994 RMK AO2 LTG DSNT
 ALQDS P0017 T02330233=
KHGR 220116Z 30011KT 2 1/2SM +RA BR BKN046 OVC070 23/23 A2992 RMK AO2 LTG DSNT
 NW-NE TSE16 PRESFR TS OHD MOVE E P0023 T02330233=
KHGR 220123Z 32007KT 7SM -RA BKN048 BKN070 OVC100 23/23 A2992 RMK AO2 LTG DSNT
 N AND NE TSE16 TS OHD MOVE E P0023 T02330233=
KHGR 220137Z 36009KT 10SM VCTS -RA SCT060 SCT070 BKN110 23/23 A2992 RMK AO2 LTG
 DSNT N AND NE TSE16 TS OHD MOVE E P0023 T02330233=
KHGR 220153Z 35010KT 10SM -RA FEW120 23/23 A2993 RMK AO2 LTG DSNT N AND NE
 TSE16 SLP137 TS OHD MOVE E P0024 T02330233=
KHGR 220253Z AUTO 14004KT 10SM CLR 23/23 A2991 RMK AO2 RAE26 SLP129 P0002 60081
 T02330233 58014=
KHGR 220353Z AUTO 18005KT 10SM CLR 23/23 A2991 RMK AO2 SLP129 T02330233=
KHGR 220453Z AUTO 22004KT 10SM CLR 23/23 A2991 RMK AO2 SLP130 T02280228
 403670228=
KHGR 220553Z AUTO 18004KT 10SM CLR 23/23 A2991 RMK AO2 SLP132 60081 T02280228
 10306 20228 53003=